createdAt,value
2023-03-22T00:03:58.276Z,3.61
2023-03-22T00:07:58.316Z,3.54
2023-03-22T00:11:58.427Z,3.42
2023-03-22T00:15:58.610Z,3.33
2023-03-22T00:19:58.641Z,3.25
2023-03-22T00:23:58.677Z,3.32
2023-03-22T00:27:58.827Z,3.31
2023-03-22T00:31:58.975Z,3.24
2023-03-22T00:35:59.048Z,3.35
2023-03-22T00:39:59.055Z,3.19
2023-03-22T00:43:59.128Z,3.08
2023-03-22T00:47:59.198Z,3.13
2023-03-22T00:51:59.191Z,3.09
2023-03-22T00:55:59.209Z,3.28
2023-03-22T00:59:59.313Z,3.09
2023-03-22T01:03:59.503Z,3.29
2023-03-22T01:07:59.582Z,3.22
2023-03-22T01:11:59.675Z,3.30
2023-03-22T01:15:59.741Z,3.19
2023-03-22T01:19:59.883Z,3.11
2023-03-22T01:24:00.048Z,3.05
2023-03-22T01:28:00.165Z,3.07
2023-03-22T01:32:00.280Z,3.07
2023-03-22T01:36:00.474Z,3.07
2023-03-22T01:40:00.544Z,3.08
2023-03-22T01:44:00.622Z,3.10
2023-03-22T01:48:00.828Z,3.05
2023-03-22T01:52:00.962Z,3.14
2023-03-22T01:56:01.028Z,3.15
2023-03-22T02:00:01.099Z,3.03
2023-03-22T02:04:01.197Z,2.97
2023-03-22T02:08:01.323Z,3.02
2023-03-22T02:12:01.436Z,2.97
2023-03-22T02:16:01.576Z,2.98
2023-03-22T02:20:01.709Z,2.88
2023-03-22T02:24:01.882Z,2.92
2023-03-22T02:28:02.019Z,3.03
2023-03-22T02:32:02.127Z,2.96
2023-03-22T02:36:02.288Z,2.87
2023-03-22T02:40:02.445Z,2.77
2023-03-22T02:44:02.568Z,2.81
2023-03-22T02:48:02.712Z,2.82
2023-03-22T02:52:02.838Z,2.55
2023-03-22T02:56:02.974Z,2.79
2023-03-22T03:00:03.034Z,2.79
2023-03-22T03:04:03.238Z,2.56
2023-03-22T03:08:03.417Z,2.72
2023-03-22T03:12:03.531Z,2.54
2023-03-22T03:16:03.634Z,2.53
2023-03-22T03:20:03.727Z,2.57
2023-03-22T03:24:03.818Z,2.46
2023-03-22T03:28:03.817Z,2.48
2023-03-22T03:32:03.851Z,2.44
2023-03-22T03:36:03.943Z,2.35
2023-03-22T03:40:04.077Z,2.35
2023-03-22T03:44:04.196Z,2.39
2023-03-22T03:48:04.418Z,2.26
2023-03-22T03:52:04.452Z,2.38
2023-03-22T03:56:04.494Z,2.29
2023-03-22T04:00:04.604Z,2.28
2023-03-22T04:04:04.632Z,2.32
2023-03-22T04:08:04.646Z,2.22
2023-03-22T04:12:04.706Z,2.29
2023-03-22T04:16:04.865Z,2.31
2023-03-22T04:20:06.031Z,2.22
2023-03-22T04:24:05.154Z,2.26
2023-03-22T04:28:05.249Z,2.27
2023-03-22T04:32:05.328Z,2.22
2023-03-22T04:36:05.516Z,2.24
2023-03-22T04:40:05.667Z,2.17
2023-03-22T04:44:05.802Z,2.15
2023-03-22T04:48:05.964Z,2.15
2023-03-22T04:52:06.083Z,2.09
2023-03-22T04:56:06.248Z,2.09
2023-03-22T05:00:06.430Z,2.05
2023-03-22T05:04:06.584Z,2.05
2023-03-22T05:08:06.660Z,2.12
2023-03-22T05:12:06.696Z,2.12
2023-03-22T05:16:06.876Z,2.22
2023-03-22T05:20:06.827Z,2.25
2023-03-22T05:24:06.853Z,2.26
2023-03-22T05:28:06.903Z,2.24
2023-03-22T05:32:07.035Z,2.25
2023-03-22T05:36:07.100Z,2.25
2023-03-22T05:40:07.158Z,2.19
2023-03-22T05:44:07.184Z,2.21
2023-03-22T05:48:07.225Z,2.24
2023-03-22T05:52:07.264Z,2.13
2023-03-22T05:56:07.233Z,2.13
2023-03-22T06:00:07.219Z,2.20
2023-03-22T06:04:07.167Z,2.34
2023-03-22T06:08:07.133Z,2.40
2023-03-22T06:12:07.131Z,2.49
2023-03-22T06:16:07.136Z,2.60
2023-03-22T06:20:07.047Z,2.58
2023-03-22T06:24:07.259Z,2.69
2023-03-22T06:28:08.780Z,2.43
2023-03-22T06:32:06.925Z,1.79
2023-03-22T06:36:06.894Z,1.58
2023-03-22T06:40:07.296Z,1.40
2023-03-22T06:44:06.900Z,1.59
2023-03-22T06:48:07.081Z,2.14
2023-03-22T06:52:07.112Z,2.62
2023-03-22T06:56:07.143Z,3.38
2023-03-22T07:00:07.388Z,4.04
2023-03-22T07:04:07.557Z,4.56
2023-03-22T07:08:07.680Z,5.81
2023-03-22T07:12:07.755Z,6.72
2023-03-22T07:16:07.918Z,6.90
2023-03-22T07:20:07.901Z,6.54
2023-03-22T07:24:07.914Z,5.93
2023-03-22T07:28:07.997Z,5.69
2023-03-22T07:32:08.315Z,3.35
2023-03-22T07:36:08.269Z,1.83
2023-03-22T07:40:08.023Z,2.74
2023-03-22T07:44:17.773Z,3.20
2023-03-22T07:48:09.234Z,3.51
2023-03-22T07:52:08.157Z,3.56
2023-03-22T07:56:08.118Z,4.36
2023-03-22T08:00:08.102Z,4.53
2023-03-22T08:04:08.100Z,4.75
2023-03-22T08:08:08.029Z,4.32
2023-03-22T08:12:08.030Z,4.32
2023-03-22T08:16:08.047Z,3.38
2023-03-22T08:20:07.994Z,3.18
2023-03-22T08:24:07.910Z,3.76
2023-03-22T08:28:08.359Z,3.32
2023-03-22T08:32:08.371Z,0.63
2023-03-22T08:36:07.880Z,0.70
2023-03-22T08:40:07.798Z,1.27
2023-03-22T08:44:07.748Z,1.64
2023-03-22T08:48:08.018Z,1.17
2023-03-22T08:52:07.951Z,0.82
2023-03-22T08:56:08.044Z,1.80
2023-03-22T09:00:08.180Z,2.11
2023-03-22T09:04:10.654Z,2.56
2023-03-22T09:08:08.508Z,3.19
2023-03-22T09:12:08.802Z,3.53
2023-03-22T09:16:08.700Z,3.50
2023-03-22T09:20:12.759Z,3.65
2023-03-22T09:24:09.839Z,0.68
2023-03-22T09:28:08.650Z,0.48
2023-03-22T09:32:08.795Z,0.49
2023-03-22T09:36:09.330Z,0.55
2023-03-22T09:40:09.324Z,0.50
2023-03-22T09:44:09.046Z,0.62
2023-03-22T09:48:09.257Z,0.55
2023-03-22T09:52:09.422Z,0.59
2023-03-22T09:56:09.831Z,0.52
2023-03-22T10:00:09.809Z,0.96
2023-03-22T10:04:09.953Z,0.56
2023-03-22T10:08:10.032Z,0.63
2023-03-22T10:12:10.072Z,0.45
2023-03-22T10:16:10.164Z,0.96
2023-03-22T10:20:10.124Z,0.80
2023-03-22T10:24:10.128Z,1.56
2023-03-22T10:28:10.234Z,1.55
2023-03-22T10:32:10.193Z,1.02
2023-03-22T10:36:10.155Z,1.11
2023-03-22T10:40:10.325Z,1.24
2023-03-22T10:44:10.104Z,0.72
2023-03-22T10:48:10.374Z,2.64
2023-03-22T10:52:10.341Z,2.13
2023-03-22T10:56:09.971Z,2.96
2023-03-22T11:00:10.384Z,1.43
2023-03-22T11:04:09.910Z,0.98
2023-03-22T11:08:09.901Z,1.61
2023-03-22T11:12:10.345Z,1.79
2023-03-22T11:16:09.844Z,0.46
2023-03-22T11:20:09.888Z,0.34
2023-03-22T11:24:09.848Z,0.34
2023-03-22T11:28:09.874Z,1.14
2023-03-22T11:32:10.066Z,0.67
2023-03-22T11:36:10.304Z,0.45
2023-03-22T11:40:10.424Z,0.51
2023-03-22T11:44:10.587Z,2.02
2023-03-22T11:48:10.716Z,4.13
2023-03-22T11:52:10.531Z,12.01
2023-03-22T11:56:10.470Z,0.92
2023-03-22T12:00:10.450Z,1.16
2023-03-22T12:04:10.485Z,4.33
2023-03-22T12:08:10.856Z,4.32
2023-03-22T12:12:10.350Z,2.08
2023-03-22T12:16:10.447Z,0.82
2023-03-22T12:20:10.376Z,0.34
2023-03-22T12:24:10.237Z,0.51
2023-03-22T12:28:10.215Z,0.50
2023-03-22T12:32:10.170Z,0.52
2023-03-22T12:36:10.206Z,1.41
2023-03-22T12:40:10.114Z,1.91
2023-03-22T12:44:10.070Z,12.80
2023-03-22T12:48:10.238Z,21.96
2023-03-22T12:52:10.014Z,93.93
2023-03-22T12:56:09.973Z,585.66
2023-03-22T13:00:09.951Z,395.05
2023-03-22T13:04:09.937Z,485.08
2023-03-22T13:08:09.877Z,838.32
2023-03-22T13:12:09.896Z,860.59
2023-03-22T13:16:09.938Z,953.81
2023-03-22T13:20:09.894Z,1000.00
2023-03-22T13:24:09.765Z,1000.00
2023-03-22T13:28:09.718Z,1000.00
2023-03-22T13:32:09.747Z,1000.00
2023-03-22T13:36:09.722Z,1000.00
2023-03-22T13:40:09.698Z,1000.00
2023-03-22T13:44:09.718Z,1000.00
2023-03-22T13:48:09.817Z,1000.00
2023-03-22T13:52:09.744Z,1000.00
2023-03-22T13:56:09.716Z,1000.00
2023-03-22T14:00:15.305Z,1000.00
2023-03-22T14:04:10.815Z,1000.00
2023-03-22T14:08:09.800Z,1000.00
2023-03-22T14:12:09.741Z,1000.00
2023-03-22T14:16:09.756Z,1000.00
2023-03-22T14:20:09.708Z,1000.00
2023-03-22T14:49:10.513Z,0.50
2023-03-22T14:53:10.720Z,0.47
2023-03-22T14:57:10.743Z,0.60
2023-03-22T15:01:10.419Z,0.52
2023-03-22T15:05:10.718Z,0.85
2023-03-22T15:09:10.348Z,0.80
2023-03-22T15:13:10.313Z,0.59
2023-03-22T15:17:10.278Z,1.24
2023-03-22T15:21:10.265Z,1.24
2023-03-22T15:25:10.214Z,1.26
2023-03-22T15:29:10.164Z,1.18
2023-03-22T15:33:10.126Z,1.33
2023-03-22T15:37:10.101Z,1.05
2023-03-22T15:41:10.075Z,1.17
2023-03-22T15:45:10.015Z,1.08
2023-03-22T15:49:10.030Z,1.14
2023-03-22T15:53:10.053Z,1.23
2023-03-22T15:57:10.090Z,1.14
2023-03-22T16:01:10.177Z,1.17
2023-03-22T16:05:10.133Z,1.20
2023-03-22T16:09:10.179Z,1.34
2023-03-22T16:13:10.218Z,1.24
2023-03-22T16:17:10.274Z,1.30
2023-03-22T16:21:10.316Z,1.26
2023-03-22T16:25:10.345Z,1.28
2023-03-22T16:29:10.522Z,1.25
2023-03-22T16:33:10.688Z,1.20
2023-03-22T16:37:10.726Z,1.23
2023-03-22T16:41:10.793Z,1.20
2023-03-22T16:45:11.252Z,1.08
2023-03-22T16:49:10.896Z,1.16
2023-03-22T16:53:10.955Z,1.19
2023-03-22T16:57:11.011Z,1.21
2023-03-22T17:01:11.071Z,1.21
2023-03-22T17:05:11.222Z,1.30
2023-03-22T17:09:11.223Z,1.27
2023-03-22T17:13:11.279Z,1.21
2023-03-22T17:17:11.386Z,1.17
2023-03-22T17:21:11.444Z,1.12
2023-03-22T17:25:11.533Z,1.06
2023-03-22T17:29:11.633Z,0.90
2023-03-22T17:33:12.835Z,0.74
2023-03-22T17:37:11.819Z,0.80
2023-03-22T17:41:11.958Z,0.97
2023-03-22T17:45:12.070Z,1.14
2023-03-22T17:49:12.151Z,1.11
2023-03-22T17:53:23.796Z,1.14
2023-03-22T17:57:36.328Z,1.16
2023-03-22T18:01:13.216Z,1.05
2023-03-22T18:05:12.412Z,0.68
2023-03-22T18:09:12.149Z,0.62
2023-03-22T18:13:12.098Z,0.69
2023-03-22T18:17:12.134Z,0.92
2023-03-22T18:21:12.034Z,1.03
2023-03-22T18:25:12.140Z,0.66
2023-03-22T18:29:11.978Z,0.99
2023-03-22T18:33:11.947Z,0.66
2023-03-22T18:37:11.960Z,0.65
2023-03-22T18:41:34.577Z,0.60
2023-03-22T18:45:15.924Z,0.60
2023-03-22T18:49:11.987Z,0.63
2023-03-22T18:53:18.265Z,0.65
2023-03-22T18:57:13.379Z,0.66
2023-03-22T19:01:12.456Z,0.64
2023-03-22T19:05:12.296Z,0.58
2023-03-22T19:09:11.884Z,0.66
2023-03-22T19:13:12.332Z,0.56
2023-03-22T19:17:12.312Z,0.55
2023-03-22T19:21:23.393Z,0.56
2023-03-22T19:25:13.308Z,0.57
2023-03-22T19:29:12.306Z,0.58
2023-03-22T19:33:30.867Z,0.60
2023-03-22T19:37:13.093Z,0.60
2023-03-22T19:45:12.318Z,0.59
2023-03-22T19:49:12.012Z,0.62
2023-03-22T19:53:44.332Z,0.60
2023-03-22T19:57:12.944Z,0.62
2023-03-22T20:01:11.956Z,0.57
2023-03-22T20:05:17.671Z,0.57
2023-03-22T20:09:12.839Z,0.65
2023-03-22T20:13:11.806Z,0.66
2023-03-22T20:17:15.182Z,0.61
2023-03-22T20:21:12.727Z,0.60
2023-03-22T20:25:11.697Z,0.56
2023-03-22T20:29:11.671Z,0.57
2023-03-22T20:33:11.765Z,0.57
2023-03-22T20:37:11.911Z,0.59
2023-03-22T20:41:12.069Z,0.55
2023-03-22T20:45:12.200Z,0.53
2023-03-22T20:49:12.346Z,0.53
2023-03-22T20:53:12.484Z,0.54
2023-03-22T20:57:12.646Z,0.52
2023-03-22T21:01:12.806Z,0.56
2023-03-22T21:05:12.916Z,0.58
2023-03-22T21:09:13.069Z,0.50
2023-03-22T21:13:13.217Z,0.53
2023-03-22T21:17:13.364Z,0.57
2023-03-22T21:21:13.540Z,0.53
2023-03-22T21:25:13.693Z,0.52
2023-03-22T21:29:13.824Z,0.60
2023-03-22T21:33:14.001Z,0.61
2023-03-22T21:37:14.131Z,0.54
2023-03-22T21:41:14.301Z,0.57
2023-03-22T21:45:14.538Z,0.54
2023-03-22T21:49:14.602Z,0.52
2023-03-22T21:53:14.709Z,0.53
2023-03-22T21:57:14.860Z,0.62
2023-03-22T22:01:15.022Z,0.60
2023-03-22T22:05:15.211Z,0.59
2023-03-22T22:09:15.377Z,0.62
2023-03-22T22:13:15.540Z,0.61
2023-03-22T22:17:15.691Z,0.61
2023-03-22T22:21:15.851Z,0.63
2023-03-22T22:25:16.052Z,0.56
2023-03-22T22:29:16.214Z,0.58
2023-03-22T22:33:16.374Z,0.52
2023-03-22T22:37:16.575Z,0.52
2023-03-22T22:41:16.765Z,0.52
2023-03-22T22:45:16.926Z,0.51
2023-03-22T22:49:17.080Z,0.51
2023-03-22T22:53:17.268Z,0.52
2023-03-22T22:57:17.432Z,0.53
2023-03-22T23:01:17.612Z,0.56
2023-03-22T23:05:17.775Z,0.54
2023-03-22T23:09:17.924Z,0.57
2023-03-22T23:13:18.115Z,0.57
2023-03-22T23:17:18.270Z,0.55
2023-03-22T23:21:18.444Z,0.57
2023-03-22T23:25:18.607Z,0.62
2023-03-22T23:29:18.764Z,0.58
2023-03-22T23:33:18.941Z,0.63
2023-03-22T23:37:19.132Z,0.65
2023-03-22T23:41:19.274Z,0.62
2023-03-22T23:45:19.456Z,0.64
2023-03-22T23:49:19.623Z,0.63
2023-03-22T23:53:19.768Z,0.63
2023-03-22T23:57:19.954Z,0.62
